All
Wiluna Airport (Wiluna, Western Australia) WUN Weather
|
Wiluna, Western Australia (WUN / YWLU)
Clear skies
Windy |
|
66 °F |
WUN Terminal Area Forecast
| Date | Time (AWST) | Flight Rules | Wind Dir. | Speed | Type | Height AGL (ft) | Visibility | Remarks | ||||||
|---|---|---|---|---|---|---|---|---|---|---|---|---|---|---|
| 08-May | 06:00PM | VFR | 70° | 14 kt | Clouds and Visibility are OK | >= 6 miles | ||||||||
Recent WUN METAR history
| Date | Time (AWST) | Flight Rules | Wind Dir. | Speed | Type | Height AGL (ft) | Visibility | Temp (°C) | Temp (°F) | Dew Point (°C) | Dew Point (°F) | Rel. Humid. | Pressure | Density Altitude | Remarks |
|---|---|---|---|---|---|---|---|---|---|---|---|---|---|---|---|
| 08-May | 06:00PM | VFR | 110° | 12 kt | 10000 meters | 19° | 66° | 2° | 35° | 32% | 1024 mb | 2,048 ft | |||
| 08-May | 05:00PM | VFR | 110° | 13 kt | 10000 meters | 21° | 69° | 2° | 35° | 28% | 1024 mb | 2,288 ft | |||
| 08-May | 04:00PM | VFR | 110° | 15 kt | 10000 meters | 22° | 71° | 3° | 37° | 29% | 1023 mb | 2,437 ft | |||
| 08-May | 03:00PM | VFR | 100° | 12 kt | 10000 meters | 21° | 69° | 3° | 37° | 30% | 1023 mb | 2,317 ft | |||
| 08-May | 02:00PM | VFR | 90° | 11 kt | 10000 meters | 21° | 69° | 4° | 39° | 33% | 1024 mb | 2,288 ft | |||
| 08-May | 01:00PM | VFR | 90° | 13 kt | 10000 meters | 21° | 69° | 4° | 39° | 33% | 1025 mb | 2,258 ft | |||
| 08-May | 12:00PM | VFR | 70° | 12 kt | 10000 meters | 20° | 68° | 4° | 39° | 35% | 1026 mb | 2,109 ft | |||
| 08-May | 11:00AM | VFR | 70° | 14 kt | 10000 meters | 19° | 66° | 5° | 41° | 40% | 1027 mb | 1,959 ft | |||
| 08-May | 10:00AM | VFR | 70° | 12 kt | 10000 meters | 17° | 62° | 6° | 42° | 48% | 1028 mb | 1,690 ft | |||
| 08-May | 09:00AM | VFR | 70° | 14 kt | 10000 meters | 15° | 59° | 6° | 42° | 55% | 1028 mb | 1,450 ft | |||
| 08-May | 08:00AM | VFR | 110° | 9 kt | 10000 meters | 13° | 55° | 6° | 42° | 62% | 1028 mb | 1,210 ft | |||
| 08-May | 07:00AM | VFR | 130° | 6 kt | 10000 meters | 9° | 48° | 4° | 39° | 71% | 1028 mb | 730 ft | |||
| 08-May | 06:00AM | VFR | 130° | 5 kt | 10000 meters | 8° | 46° | 4° | 39° | 76% | 1028 mb | 610 ft | |||
| 08-May | 05:00AM | VFR | 130° | 5 kt | 10000 meters | 9° | 48° | 4° | 39° | 71% | 1027 mb | 759 ft | |||
| 08-May | 04:00AM | VFR | 120° | 7 kt | 10000 meters | 10° | 50° | 4° | 39° | 66% | 1027 mb | 879 ft | |||
| 08-May | 03:00AM | VFR | 130° | 8 kt | 10000 meters | 11° | 51° | 4° | 39° | 62% | 1027 mb | 999 ft | |||
| 08-May | 02:00AM | VFR | 110° | 9 kt | 10000 meters | 13° | 55° | 5° | 41° | 58% | 1027 mb | 1,239 ft | |||
| 08-May | 01:00AM | VFR | 100° | 11 kt | 10000 meters | 14° | 57° | 5° | 41° | 55% | 1027 mb | 1,359 ft | |||
| 08-May | 12:00AM | VFR | 110° | 14 kt | 10000 meters | 15° | 59° | 5° | 41° | 51% | 1027 mb | 1,479 ft | |||
| 07-May | 11:00PM | VFR | 100° | 13 kt | 10000 meters | 16° | 60° | 5° | 41° | 48% | 1027 mb | 1,599 ft | |||
| 07-May | 10:00PM | VFR | 110° | 14 kt | 10000 meters | 17° | 62° | 6° | 42° | 48% | 1027 mb | 1,719 ft | |||
| 07-May | 09:00PM | VFR | 110° | 13 kt | 10000 meters | 18° | 64° | 5° | 41° | 42% | 1026 mb | 1,869 ft | |||
| 07-May | 08:00PM | VFR | 120° | 6 kt | 10000 meters | 16° | 60° | 4° | 39° | 45% | 1026 mb | 1,629 ft | |||
| 07-May | 07:00PM | VFR | 100° | 10 kt | 10000 meters | 19° | 66° | 4° | 39° | 37% | 1025 mb | 2,018 ft |
Login
| Your browser is unsupported. upgrade your browser |
